Time;durP1;ratioP1;P1;durP2;ratioP2;P2;SDS_P1;SDS_P2;PMS_P1;PMS_P2;Temp;Humidity;BMP_temperature;BMP_pressure;BME280_temperature;BME280_humidity;BME280_pressure;Samples;Min_cycle;Max_cycle;Signal;HPM_P1;HPM_P2
2022/09/15 00:01:24;;;;;;;5.35;3.10;;;;;16.90;95333.00;;;;8396181;28;20216;-66
2022/09/15 00:05:27;;;;;;;10.35;3.92;;;;;16.90;95331.00;;;;8395449;28;20683;-66
2022/09/15 00:09:31;;;;;;;11.35;3.80;;;;;16.90;95328.00;;;;8396331;28;20227;-67
2022/09/15 00:13:35;;;;;;;9.40;3.72;;;;;16.90;95316.00;;;;8404896;28;20538;-67
2022/09/15 00:17:39;;;;;;;6.25;3.60;;;;;17.00;95327.00;;;;8429394;28;20305;-66
2022/09/15 00:21:42;;;;;;;13.23;3.92;;;;;17.10;95324.00;;;;8428997;28;20273;-66
2022/09/15 00:25:47;;;;;;;24.30;4.25;;;;;17.10;95330.00;;;;8429221;28;20235;-66
2022/09/15 00:30:21;;;;;;;8.57;3.53;;;;;17.10;95331.00;;;;8428993;28;20247;-66
2022/09/15 00:34:26;;;;;;;16.80;4.28;;;;;17.20;95329.00;;;;8428456;28;20219;-66
2022/09/15 00:38:29;;;;;;;4.90;3.55;;;;;17.20;95330.00;;;;8427645;28;20549;-66
2022/09/15 00:42:32;;;;;;;6.75;3.47;;;;;17.30;95328.00;;;;8428680;28;20215;-66
2022/09/15 00:46:39;;;;;;;6.75;3.55;;;;;17.30;95322.00;;;;8427634;28;20223;-66
2022/09/15 00:50:49;;;;;;;8.35;3.45;;;;;17.40;95324.00;;;;8428044;28;20265;-65
2022/09/15 00:54:57;;;;;;;7.22;3.83;;;;;17.50;95312.00;;;;8428231;28;20242;-66
2022/09/15 00:59:29;;;;;;;7.70;3.33;;;;;17.50;95310.00;;;;8427302;28;20215;-66
2022/09/15 01:03:34;;;;;;;9.13;3.80;;;;;17.50;95300.00;;;;8427973;28;20285;-68
2022/09/15 01:07:43;;;;;;;13.43;3.95;;;;;17.60;95299.00;;;;8426875;28;20226;-65
2022/09/15 01:11:46;;;;;;;10.43;3.70;;;;;17.60;95294.00;;;;8427424;28;20281;-66
2022/09/15 01:16:26;;;;;;;9.32;4.30;;;;;17.60;95294.00;;;;8427638;28;20253;-66
2022/09/15 01:20:54;;;;;;;8.60;3.35;;;;;17.60;95291.00;;;;8427896;28;20525;-66
2022/09/15 01:25:07;;;;;;;10.05;4.05;;;;;17.70;95290.00;;;;8427049;28;20225;-65
2022/09/15 01:29:58;;;;;;;8.70;3.53;;;;;17.70;95280.00;;;;8427343;28;20219;-66
2022/09/15 01:34:06;;;;;;;7.25;3.58;;;;;17.70;95282.00;;;;8426745;28;20260;-65
2022/09/15 01:38:14;;;;;;;10.02;3.65;;;;;17.80;95272.00;;;;8427301;28;20215;-66
2022/09/15 01:42:18;;;;;;;6.28;2.97;;;;;17.80;95267.00;;;;8427172;28;20737;-65
2022/09/15 01:46:25;;;;;;;7.53;3.50;;;;;17.80;95274.00;;;;8427736;28;20543;-65
2022/09/15 01:50:32;;;;;;;12.23;3.38;;;;;17.80;95282.00;;;;8427196;28;20222;-66
2022/09/15 01:54:40;;;;;;;7.75;3.67;;;;;17.80;95278.00;;;;8432556;28;20218;-65
2022/09/15 01:59:10;;;;;;;9.90;3.83;;;;;17.80;95260.00;;;;8434026;28;20227;-65
2022/09/15 02:03:21;;;;;;;6.68;3.97;;;;;17.90;95264.00;;;;8433909;28;20219;-65
2022/09/15 02:07:34;;;;;;;5.95;3.78;;;;;17.90;95259.00;;;;8433119;28;20564;-65
2022/09/15 02:11:44;;;;;;;16.90;4.05;;;;;17.90;95251.00;;;;8433157;28;20302;-64
2022/09/15 02:15:52;;;;;;;6.70;3.67;;;;;17.80;95264.00;;;;8433188;28;20230;-65
2022/09/15 02:20:02;;;;;;;18.95;4.50;;;;;17.80;95246.00;;;;8432260;28;20219;-71
2022/09/15 02:24:11;;;;;;;16.23;4.47;;;;;17.70;95248.00;;;;8433581;28;20636;-79
2022/09/15 02:28:17;;;;;;;10.07;4.00;;;;;17.70;95253.00;;;;8432570;28;20238;-71
2022/09/15 02:32:53;;;;;;;8.02;4.22;;;;;17.60;95247.00;;;;8433403;28;20334;-72
2022/09/15 02:36:58;;;;;;;16.33;4.97;;;;;17.60;95243.00;;;;8432030;28;20215;-79
2022/09/15 02:41:02;;;;;;;14.95;4.75;;;;;17.70;95235.00;;;;8432258;28;20215;-71
2022/09/15 02:45:06;;;;;;;10.73;4.15;;;;;17.70;95235.00;;;;8432127;28;20297;-71
2022/09/15 02:49:09;;;;;;;4.65;3.30;;;;;17.70;95230.00;;;;8432283;28;20538;-69
2022/09/15 02:53:13;;;;;;;7.32;3.53;;;;;17.70;95233.00;;;;8431690;28;20222;-68
2022/09/15 02:57:48;;;;;;;8.20;3.55;;;;;17.70;95234.00;;;;8432262;28;20249;-68
2022/09/15 03:01:51;;;;;;;21.45;3.83;;;;;17.70;95259.00;;;;8430555;28;20540;-81
2022/09/15 03:06:15;;;;;;;7.60;2.15;;;;;17.60;95241.00;;;;8431005;28;20653;-72
2022/09/15 03:10:19;;;;;;;7.80;2.47;;;;;17.70;95237.00;;;;8431223;28;20256;-72
2022/09/15 03:14:53;;;;;;;7.50;2.75;;;;;17.70;95243.00;;;;8431033;28;20227;-72
2022/09/15 03:18:58;;;;;;;5.38;2.80;;;;;17.70;95254.00;;;;8430178;28;20238;-71
2022/09/15 03:23:02;;;;;;;5.45;2.67;;;;;17.70;95252.00;;;;8430869;28;20246;-70
2022/09/15 03:27:06;;;;;;;6.07;2.97;;;;;17.80;95249.00;;;;8430652;28;20304;-70
2022/09/15 03:31:40;;;;;;;6.75;2.40;;;;;17.90;95245.00;;;;8430057;28;20219;-70
2022/09/15 03:35:46;;;;;;;7.18;2.83;;;;;17.90;95241.00;;;;8430185;28;20240;-69
2022/09/15 03:39:49;;;;;;;5.55;3.17;;;;;17.90;95240.00;;;;8429923;28;20223;-69
2022/09/15 03:43:53;;;;;;;7.90;3.60;;;;;18.00;95250.00;;;;8430150;28;20230;-69
2022/09/15 03:48:04;;;;;;;6.22;3.17;;;;;18.00;95246.00;;;;8429848;28;20277;-69
2022/09/15 03:52:07;;;;;;;7.72;3.92;;;;;18.00;95248.00;;;;8430129;28;20227;-69
2022/09/15 03:56:13;;;;;;;10.88;3.65;;;;;18.00;95254.00;;;;8429543;28;20590;-70
2022/09/15 04:00:18;;;;;;;11.77;3.92;;;;;18.00;95249.00;;;;8429664;28;20222;-70
2022/09/15 04:04:21;;;;;;;8.82;3.83;;;;;18.00;95238.00;;;;8429760;28;20215;-70
2022/09/15 04:08:58;;;;;;;9.93;3.53;;;;;17.90;95227.00;;;;8429459;28;20231;-70
2022/09/15 04:13:02;;;;;;;9.52;4.00;;;;;17.90;95215.00;;;;8428969;28;20643;-70
2022/09/15 04:17:06;;;;;;;5.97;3.85;;;;;17.90;95210.00;;;;8428633;28;20215;-70
2022/09/15 04:21:13;;;;;;;10.00;4.10;;;;;17.90;95204.00;;;;8429050;28;20297;-70
2022/09/15 04:25:16;;;;;;;8.65;3.92;;;;;17.90;95209.00;;;;8429174;28;20669;-71
2022/09/15 04:29:19;;;;;;;11.30;4.60;;;;;17.90;95203.00;;;;8428189;28;20231;-70
2022/09/15 04:33:24;;;;;;;10.85;4.53;;;;;17.90;95208.00;;;;8428525;28;20219;-71
2022/09/15 04:37:27;;;;;;;14.93;5.00;;;;;18.00;95209.00;;;;8428497;28;20313;-71
2022/09/15 04:42:05;;;;;;;11.77;5.60;;;;;18.00;95204.00;;;;8428760;28;20227;-71
2022/09/15 04:46:08;;;;;;;12.80;5.70;;;;;18.00;95201.00;;;;8427506;28;20207;-70
2022/09/15 04:50:12;;;;;;;19.85;5.85;;;;;18.10;95184.00;;;;8428001;28;20225;-70
2022/09/15 04:54:15;;;;;;;13.25;4.97;;;;;18.00;95184.00;;;;8428602;28;20219;-70
2022/09/15 04:58:53;;;;;;;14.30;5.15;;;;;17.90;95186.00;;;;8428396;28;20223;-70
2022/09/15 05:03:02;;;;;;;12.88;5.38;;;;;17.90;95202.00;;;;8427851;28;20222;-70
2022/09/15 05:07:07;;;;;;;18.58;5.70;;;;;18.00;95209.00;;;;8428289;28;20219;-70
2022/09/15 05:11:41;;;;;;;14.90;5.97;;;;;18.00;95206.00;;;;8427255;28;20257;-70
2022/09/15 05:15:44;;;;;;;15.30;6.05;;;;;18.10;95211.00;;;;8428259;28;20230;-70
2022/09/15 05:19:47;;;;;;;20.30;5.82;;;;;18.20;95213.00;;;;8427464;28;20238;-69
2022/09/15 05:24:25;;;;;;;20.30;6.13;;;;;18.20;95217.00;;;;8428062;28;20219;-69
2022/09/15 05:28:29;;;;;;;12.73;5.97;;;;;18.20;95213.00;;;;8430984;28;20215;-70
2022/09/15 05:32:32;;;;;;;18.70;6.03;;;;;18.30;95220.00;;;;8434587;28;20241;-70
2022/09/15 05:36:35;;;;;;;12.05;5.18;;;;;18.30;95215.00;;;;8434781;28;20272;-70
2022/09/15 05:40:39;;;;;;;16.88;5.30;;;;;18.40;95211.00;;;;8433584;28;20247;-69
2022/09/15 05:45:13;;;;;;;11.68;4.32;;;;;18.40;95198.00;;;;8433970;28;20219;-69
2022/09/15 05:49:16;;;;;;;10.68;5.05;;;;;18.40;95212.00;;;;8433350;28;20215;-68
2022/09/15 05:53:20;;;;;;;9.93;3.90;;;;;18.50;95210.00;;;;8434202;28;20212;-69
2022/09/15 05:57:25;;;;;;;12.60;4.00;;;;;18.60;95203.00;;;;8433874;28;20211;-70
2022/09/15 06:01:29;;;;;;;10.00;3.33;;;;;18.80;95193.00;;;;8433719;28;20222;-67
2022/09/15 06:05:33;;;;;;;10.10;3.60;;;;;18.90;95204.00;;;;8433879;28;20301;-68
2022/09/15 06:09:36;;;;;;;10.65;3.80;;;;;18.90;95198.00;;;;8433047;28;20223;-67
2022/09/15 06:14:14;;;;;;;9.77;3.70;;;;;18.90;95209.00;;;;8433660;28;20242;-68
2022/09/15 06:18:17;;;;;;;9.05;3.35;;;;;18.90;95216.00;;;;8432824;28;20284;-68
2022/09/15 06:22:20;;;;;;;5.68;3.45;;;;;19.00;95213.00;;;;8432961;28;20223;-69
2022/09/15 06:26:24;;;;;;;5.25;3.45;;;;;19.00;95209.00;;;;8432644;28;20556;-68
2022/09/15 06:30:29;;;;;;;7.65;3.20;;;;;19.20;95212.00;;;;8431995;28;20230;-68
2022/09/15 06:34:33;;;;;;;6.72;3.05;;;;;19.30;95213.00;;;;8432242;28;20223;-68
2022/09/15 06:39:10;;;;;;;8.55;3.20;;;;;19.30;95208.00;;;;8431823;28;20223;-68
2022/09/15 06:43:13;;;;;;;3.30;2.65;;;;;19.30;95228.00;;;;8431884;28;20215;-68
2022/09/15 06:47:17;;;;;;;5.32;2.90;;;;;19.20;95230.00;;;;8432517;28;20644;-67
2022/09/15 06:51:22;;;;;;;7.05;2.90;;;;;19.30;95229.00;;;;8432372;28;20234;-67
2022/09/15 06:55:27;;;;;;;5.72;2.75;;;;;19.20;95236.00;;;;8431987;28;20276;-67
2022/09/15 07:00:00;;;;;;;4.45;2.92;;;;;19.20;95242.00;;;;8431585;28;20552;-67
2022/09/15 07:04:08;;;;;;;9.63;3.58;;;;;19.20;95243.00;;;;8431573;28;20624;-67
2022/09/15 07:08:12;;;;;;;6.63;2.80;;;;;19.20;95244.00;;;;8431183;28;20272;-67
2022/09/15 07:12:15;;;;;;;8.65;3.22;;;;;19.10;95252.00;;;;8431648;28;20644;-67
2022/09/15 07:16:52;;;;;;;7.10;2.78;;;;;19.10;95245.00;;;;8430330;28;20222;-68
2022/09/15 07:21:00;;;;;;;3.45;2.65;;;;;19.20;95248.00;;;;8431029;28;20230;-67
2022/09/15 07:25:04;;;;;;;6.82;3.83;;;;;19.20;95254.00;;;;8430738;28;20247;-67
2022/09/15 07:29:07;;;;;;;3.78;3.08;;;;;19.30;95257.00;;;;8430245;28;20215;-67
2022/09/15 07:33:13;;;;;;;4.80;3.35;;;;;19.30;95260.00;;;;8430514;28;20230;-67
2022/09/15 07:37:17;;;;;;;5.30;3.25;;;;;19.30;95268.00;;;;8430281;28;20207;-67
2022/09/15 07:41:22;;;;;;;7.85;3.50;;;;;19.40;95261.00;;;;8429662;28;20671;-67
2022/09/15 07:45:25;;;;;;;5.07;3.17;;;;;19.30;95273.00;;;;8429298;28;20222;-67
2022/09/15 07:49:29;;;;;;;4.97;3.13;;;;;19.30;95264.00;;;;8429636;28;20216;-67
2022/09/15 07:53:34;;;;;;;3.30;2.97;;;;;19.50;95262.00;;;;8429862;28;20219;-67
2022/09/15 07:58:07;;;;;;;6.07;2.90;;;;;19.60;95281.00;;;;8430033;28;20226;-67
2022/09/15 08:02:16;;;;;;;5.15;2.90;;;;;19.70;95272.00;;;;8429680;28;20211;-67
2022/09/15 08:06:21;;;;;;;3.50;2.45;;;;;19.80;95285.00;;;;8430049;28;20276;-67
2022/09/15 08:10:26;;;;;;;5.30;2.65;;;;;19.90;95282.00;;;;8429349;28;20542;-67
2022/09/15 08:14:30;;;;;;;2.58;2.40;;;;;20.00;95293.00;;;;8428523;28;20216;-67
2022/09/15 08:18:34;;;;;;;5.70;2.67;;;;;20.00;95285.00;;;;8428918;28;20268;-67
2022/09/15 08:22:37;;;;;;;4.07;2.40;;;;;20.10;95297.00;;;;8429214;28;20504;-66
2022/09/15 08:27:15;;;;;;;5.22;2.35;;;;;20.10;95294.00;;;;8428189;28;20279;-67
2022/09/15 08:31:18;;;;;;;4.90;2.78;;;;;20.30;95293.00;;;;8428001;28;20219;-67
2022/09/15 08:35:21;;;;;;;5.53;2.63;;;;;20.30;95304.00;;;;8428315;28;20243;-66
2022/09/15 08:39:25;;;;;;;2.63;2.53;;;;;20.30;95305.00;;;;8428685;28;20276;-67
2022/09/15 08:43:35;;;;;;;5.20;2.78;;;;;20.00;95315.00;;;;8428180;28;20556;-66
2022/09/15 08:47:43;;;;;;;3.15;2.72;;;;;19.70;95312.00;;;;8428943;28;20246;-66
2022/09/15 08:51:48;;;;;;;4.90;2.38;;;;;19.40;95315.00;;;;8427606;28;20230;-67
2022/09/15 08:55:54;;;;;;;3.53;2.95;;;;;19.20;95318.00;;;;8428585;28;20230;-67
2022/09/15 09:05:17;;;;;;;3.72;2.63;;;;;19.20;95325.00;;;;8428262;28;20219;-65
2022/09/15 09:09:28;;;;;;;4.72;2.80;;;;;19.20;95324.00;;;;8427573;28;20219;-69
2022/09/15 09:13:59;;;;;;;7.10;2.83;;;;;19.00;95332.00;;;;8428394;28;20223;-74
2022/09/15 09:18:34;;;;;;;3.45;1.85;;;;;18.80;95330.00;;;;8427350;28;20234;-76
2022/09/15 09:22:42;;;;;;;3.25;2.10;;;;;18.70;95327.00;;;;8422301;28;20280;-71
2022/09/15 09:27:13;;;;;;;2.33;1.80;;;;;18.80;95334.00;;;;8427393;28;20219;-70
2022/09/15 09:31:20;;;;;;;1.90;1.80;;;;;18.80;95335.00;;;;8427484;28;20219;-72
2022/09/15 09:35:29;;;;;;;4.50;1.67;;;;;18.90;95332.00;;;;8426879;28;20279;-73
2022/09/15 09:39:59;;;;;;;2.85;1.60;;;;;19.00;95333.00;;;;8427641;28;20230;-72
2022/09/15 09:44:10;;;;;;;1.50;1.40;;;;;19.00;95328.00;;;;8427427;28;20219;-74
2022/09/15 09:48:18;;;;;;;4.95;1.60;;;;;19.00;95330.00;;;;8427732;28;20679;-74
2022/09/15 09:52:34;;;;;;;3.53;1.27;;;;;18.90;95319.00;;;;8427062;28;20211;-75
2022/09/15 09:57:20;;;;;;;2.63;1.40;;;;;18.80;95314.00;;;;8427897;28;20253;-76
2022/09/15 10:01:26;;;;;;;1.42;1.33;;;;;18.80;95325.00;;;;8427096;28;20219;-80
2022/09/15 10:05:29;;;;;;;1.23;1.23;;;;;18.90;95341.00;;;;8427234;28;20249;-74
2022/09/15 10:09:32;;;;;;;1.40;1.27;;;;;19.00;95334.00;;;;8426989;28;20676;-77
2022/09/15 10:14:06;;;;;;;1.38;1.27;;;;;19.10;95336.00;;;;8428461;28;20223;-73
2022/09/15 10:18:26;;;;;;;1.88;1.20;;;;;19.20;95338.00;;;;8432833;28;20585;-75
2022/09/15 10:22:32;;;;;;;1.25;1.15;;;;;19.30;95337.00;;;;8432585;28;20211;-75
2022/09/15 10:26:35;;;;;;;1.55;1.30;;;;;19.60;95340.00;;;;8433247;28;20223;-74
2022/09/15 10:30:39;;;;;;;1.45;1.30;;;;;19.50;95336.00;;;;8432215;28;20552;-73
2022/09/15 10:35:18;;;;;;;1.55;1.48;;;;;19.40;95336.00;;;;8432669;28;20234;-75
2022/09/15 10:39:26;;;;;;;1.30;1.30;;;;;19.50;95347.00;;;;8431116;28;20219;-75
2022/09/15 10:43:38;;;;;;;1.20;1.20;;;;;19.40;95356.00;;;;8432640;28;20617;-74
2022/09/15 10:48:14;;;;;;;3.45;1.25;;;;;19.20;95350.00;;;;8431757;28;20217;-74
2022/09/15 10:52:26;;;;;;;1.48;1.13;;;;;19.10;95355.00;;;;8431863;28;20219;-75
2022/09/15 10:56:33;;;;;;;2.55;1.15;;;;;18.80;95350.00;;;;8431346;28;20215;-78
2022/09/15 11:00:45;;;;;;;2.08;1.30;;;;;18.80;95332.00;;;;8431408;28;20226;-74
2022/09/15 11:05:38;;;;;;;2.53;1.10;;;;;18.90;95340.00;;;;8431494;28;20297;-74
2022/09/15 11:09:46;;;;;;;1.45;1.35;;;;;19.00;95342.00;;;;8378469;28;20243;-74
2022/09/15 11:14:06;;;;;;;1.40;1.30;;;;;19.20;95351.00;;;;8431609;28;20652;-74
2022/09/15 11:18:26;;;;;;;1.38;1.30;;;;;19.10;95345.00;;;;8431419;28;20219;-74
2022/09/15 11:22:34;;;;;;;3.50;1.70;;;;;19.10;95333.00;;;;8430829;28;20255;-72
2022/09/15 11:26:43;;;;;;;1.73;1.63;;;;;19.10;95335.00;;;;8429246;28;20219;-72
2022/09/15 11:30:53;;;;;;;1.60;1.50;;;;;19.10;95332.00;;;;8430787;28;20257;-72
2022/09/15 11:35:36;;;;;;;1.60;1.40;;;;;19.10;95321.00;;;;8429260;28;20223;-73
2022/09/15 11:39:46;;;;;;;1.60;1.50;;;;;19.30;95332.00;;;;8429966;28;20227;-73
2022/09/15 11:44:21;;;;;;;1.80;1.45;;;;;19.40;95339.00;;;;8429993;28;20231;-75
2022/09/15 11:48:28;;;;;;;1.70;1.20;;;;;19.50;95336.00;;;;8429447;28;20219;-76
2022/09/15 11:52:44;;;;;;;1.00;1.00;;;;;19.80;95348.00;;;;8428962;28;20682;-74
2022/09/15 11:57:16;;;;;;;1.70;1.60;;;;;20.00;95345.00;;;;8429597;28;20298;-74
2022/09/15 12:01:24;;;;;;;1.10;1.05;;;;;20.20;95350.00;;;;8429204;28;20215;-75
2022/09/15 12:05:32;;;;;;;1.08;1.08;;;;;20.50;95343.00;;;;8429270;28;20207;-74
2022/09/15 12:10:05;;;;;;;1.05;1.05;;;;;20.70;95345.00;;;;8429176;28;20218;-76
2022/09/15 12:14:14;;;;;;;2.03;1.30;;;;;20.90;95347.00;;;;8429606;28;20207;-76
2022/09/15 12:18:25;;;;;;;1.60;1.50;;;;;21.20;95359.00;;;;8428931;28;20526;-77
2022/09/15 12:22:58;;;;;;;1.55;1.45;;;;;21.40;95365.00;;;;8428835;28;20713;-76
2022/09/15 12:27:02;;;;;;;2.15;1.60;;;;;21.00;95359.00;;;;8428252;28;20215;-75
2022/09/15 12:31:15;;;;;;;1.38;1.38;;;;;20.80;95354.00;;;;8428334;28;20227;-75
2022/09/15 12:35:37;;;;;;;1.55;1.48;;;;;20.80;95350.00;;;;8427843;28;20229;-75
2022/09/15 12:39:54;;;;;;;1.30;1.30;;;;;20.80;95348.00;;;;8428204;28;20210;-74
2022/09/15 12:44:00;;;;;;;2.17;1.30;;;;;21.00;95346.00;;;;8427735;28;20249;-74
2022/09/15 12:48:07;;;;;;;1.08;1.08;;;;;21.20;95344.00;;;;8428410;28;20219;-74
2022/09/15 12:52:12;;;;;;;1.20;1.20;;;;;21.40;95347.00;;;;8427989;28;20598;-74
2022/09/15 12:56:23;;;;;;;1.30;1.20;;;;;21.40;95351.00;;;;8428057;28;20223;-74
2022/09/15 13:00:29;;;;;;;1.20;1.20;;;;;21.10;95353.00;;;;8427769;28;20278;-73
2022/09/15 13:04:51;;;;;;;1.02;1.02;;;;;20.80;95351.00;;;;8428052;28;20598;-72
2022/09/15 13:09:25;;;;;;;1.45;1.25;;;;;20.60;95367.00;;;;8428355;28;20211;-71
2022/09/15 13:13:35;;;;;;;1.23;1.20;;;;;20.20;95365.00;;;;8426910;28;20226;-71
2022/09/15 13:18:06;;;;;;;1.30;1.20;;;;;19.90;95355.00;;;;8427688;28;20219;-72
2022/09/15 13:22:19;;;;;;;3.10;1.40;;;;;19.70;95360.00;;;;8427218;28;20238;-73
2022/09/15 13:26:27;;;;;;;1.27;1.17;;;;;19.50;95361.00;;;;8427416;28;20568;-73
2022/09/15 13:30:40;;;;;;;1.70;1.60;;;;;19.40;95340.00;;;;8426987;28;20222;-74
2022/09/15 13:35:19;;;;;;;1.48;1.20;;;;;19.50;95340.00;;;;8427968;28;20268;-74
2022/09/15 13:39:35;;;;;;;1.10;1.10;;;;;19.40;95331.00;;;;8386326;28;20251;-74
2022/09/15 13:44:07;;;;;;;1.10;1.10;;;;;19.30;95332.00;;;;8426754;28;20230;-74
2022/09/15 13:48:31;;;;;;;1.65;1.40;;;;;19.10;95340.00;;;;8428452;28;20215;-73
2022/09/15 13:52:48;;;;;;;1.45;1.45;;;;;19.10;95337.00;;;;8433352;28;20218;-76
2022/09/15 13:56:52;;;;;;;2.47;1.70;;;;;18.80;95333.00;;;;8433391;28;20249;-76
2022/09/15 14:00:59;;;;;;;1.60;1.60;;;;;18.60;95341.00;;;;8433364;28;20243;-76
2022/09/15 14:05:03;;;;;;;3.30;1.67;;;;;18.40;95339.00;;;;8432927;28;20219;-76
2022/09/15 14:09:09;;;;;;;1.48;1.48;;;;;18.20;95346.00;;;;8433479;28;20222;-73
2022/09/15 14:13:16;;;;;;;1.80;1.70;;;;;18.00;95352.00;;;;8432670;28;20219;-73
2022/09/15 14:17:22;;;;;;;2.00;1.70;;;;;17.90;95349.00;;;;8433743;28;20276;-75
2022/09/15 14:21:28;;;;;;;4.07;2.10;;;;;17.90;95353.00;;;;8432787;28;20235;-76
2022/09/15 14:25:31;;;;;;;2.35;2.15;;;;;17.80;95358.00;;;;8432792;28;20241;-77
2022/09/15 14:29:39;;;;;;;10.95;1.85;;;;;17.60;95364.00;;;;8432692;28;20548;-77
2022/09/15 14:34:17;;;;;;;2.38;1.70;;;;;17.60;95348.00;;;;8433064;28;20698;-75
2022/09/15 14:38:22;;;;;;;2.15;2.00;;;;;17.50;95350.00;;;;8432803;28;20272;-76
2022/09/15 14:42:29;;;;;;;2.65;2.10;;;;;17.50;95374.00;;;;8432813;28;20580;-77
2022/09/15 14:46:37;;;;;;;6.07;2.30;;;;;17.50;95379.00;;;;8431591;28;20239;-72
2022/09/15 14:51:18;;;;;;;3.28;2.30;;;;;17.40;95408.00;;;;8431120;28;20234;-73
2022/09/15 14:55:24;;;;;;;2.95;2.22;;;;;17.40;95414.00;;;;8431413;28;20576;-73
2022/09/15 14:59:34;;;;;;;2.72;2.25;;;;;17.40;95405.00;;;;8431585;28;20302;-72
2022/09/15 15:04:04;;;;;;;4.28;2.75;;;;;17.40;95408.00;;;;8431189;28;20226;-72
2022/09/15 15:08:18;;;;;;;4.20;2.70;;;;;17.30;95424.00;;;;8430989;28;20207;-71
2022/09/15 15:12:24;;;;;;;3.00;2.63;;;;;17.40;95437.00;;;;8431368;28;20637;-71
2022/09/15 15:16:30;;;;;;;7.00;3.65;;;;;17.30;95449.00;;;;8431815;28;20660;-71
2022/09/15 15:20:33;;;;;;;5.50;4.20;;;;;17.20;95447.00;;;;8430352;28;20226;-70
2022/09/15 15:24:44;;;;;;;7.90;4.43;;;;;17.20;95451.00;;;;8430677;28;20737;-71
2022/09/15 15:28:47;;;;;;;12.25;4.25;;;;;17.20;95462.00;;;;8430878;28;20266;-71
2022/09/15 15:32:50;;;;;;;11.55;4.80;;;;;17.30;95463.00;;;;8430901;28;20227;-71
2022/09/15 15:37:03;;;;;;;5.07;3.55;;;;;17.30;95451.00;;;;8430190;28;20226;-71
2022/09/15 15:41:09;;;;;;;11.90;5.05;;;;;17.40;95459.00;;;;8430204;28;20536;-71
2022/09/15 15:45:22;;;;;;;11.13;4.88;;;;;17.40;95464.00;;;;8430581;28;20223;-72
2022/09/15 15:49:28;;;;;;;10.40;5.55;;;;;17.50;95465.00;;;;8429236;28;20223;-71
2022/09/15 15:53:31;;;;;;;9.55;5.07;;;;;17.50;95462.00;;;;8430405;28;20223;-72
2022/09/15 15:58:10;;;;;;;6.78;4.20;;;;;17.50;95460.00;;;;8429487;28;20310;-71
2022/09/15 16:02:13;;;;;;;11.65;4.80;;;;;17.60;95458.00;;;;8429561;28;20302;-72
2022/09/15 16:06:16;;;;;;;7.90;4.63;;;;;17.70;95459.00;;;;8429121;28;20227;-72
2022/09/15 16:10:22;;;;;;;9.32;4.32;;;;;17.70;95459.00;;;;8428935;28;20679;-72
2022/09/15 16:14:27;;;;;;;16.30;4.68;;;;;17.50;95468.00;;;;8429572;28;20613;-73
2022/09/15 16:18:30;;;;;;;9.55;5.13;;;;;17.30;95476.00;;;;8429130;28;20261;-73
2022/09/15 16:22:33;;;;;;;8.70;4.68;;;;;17.10;95467.00;;;;8429564;28;20250;-73
2022/09/15 16:26:36;;;;;;;10.57;5.47;;;;;17.00;95474.00;;;;8429045;28;20218;-75
2022/09/15 16:30:41;;;;;;;13.10;5.18;;;;;16.90;95479.00;;;;8428383;28;20218;-72
2022/09/15 16:35:20;;;;;;;14.45;5.93;;;;;16.90;95480.00;;;;8428604;28;20226;-73
2022/09/15 16:39:23;;;;;;;13.32;6.07;;;;;16.80;95490.00;;;;8428452;28;20273;-72
2022/09/15 16:43:26;;;;;;;14.07;6.53;;;;;16.60;95496.00;;;;8429034;28;20223;-72
2022/09/15 16:47:31;;;;;;;16.55;6.25;;;;;16.50;95496.00;;;;8428255;28;20223;-73
2022/09/15 16:52:05;;;;;;;11.18;6.40;;;;;16.40;95499.00;;;;8428423;28;20238;-72
2022/09/15 16:56:11;;;;;;;13.38;5.57;;;;;16.30;95496.00;;;;8427529;28;20867;-72
2022/09/15 17:00:15;;;;;;;11.68;5.38;;;;;16.30;95496.00;;;;8427983;28;20222;-72
2022/09/15 17:04:20;;;;;;;12.10;5.60;;;;;16.20;95499.00;;;;8426774;28;20250;-75
2022/09/15 17:08:54;;;;;;;10.32;5.93;;;;;16.20;95504.00;;;;8427835;28;20227;-72
2022/09/15 17:12:57;;;;;;;14.02;6.05;;;;;16.10;95512.00;;;;8427458;28;20264;-72
2022/09/15 17:17:00;;;;;;;12.15;5.88;;;;;16.10;95514.00;;;;8428286;28;20264;-72
2022/09/15 17:21:05;;;;;;;10.52;6.47;;;;;16.00;95511.00;;;;8427231;28;20223;-72
2022/09/15 17:25:40;;;;;;;13.60;6.93;;;;;15.80;95512.00;;;;8426368;28;20222;-73
2022/09/15 17:29:43;;;;;;;15.93;6.13;;;;;15.70;95532.00;;;;8426486;28;20272;-72
2022/09/15 17:33:47;;;;;;;13.00;6.45;;;;;15.60;95538.00;;;;8427631;28;20234;-72
2022/09/15 17:37:52;;;;;;;15.25;7.53;;;;;15.70;95545.00;;;;8427355;28;20602;-72
2022/09/15 17:41:55;;;;;;;20.85;7.70;;;;;15.80;95542.00;;;;8427308;28;20234;-72
2022/09/15 17:46:32;;;;;;;14.50;7.00;;;;;15.80;95543.00;;;;8427768;28;20219;-72
2022/09/15 17:50:37;;;;;;;16.30;7.65;;;;;15.90;95545.00;;;;8426303;28;20234;-72
2022/09/15 17:54:41;;;;;;;16.98;7.78;;;;;16.00;95557.00;;;;8427011;28;20219;-72
2022/09/15 17:58:44;;;;;;;19.88;7.75;;;;;16.00;95559.00;;;;8426452;28;20668;-72
2022/09/15 18:02:49;;;;;;;17.63;7.97;;;;;16.10;95556.00;;;;8427272;28;20273;-72
2022/09/15 18:06:52;;;;;;;19.15;8.45;;;;;16.00;95564.00;;;;8426500;28;20231;-72
2022/09/15 18:10:57;;;;;;;18.63;7.25;;;;;16.00;95576.00;;;;8426766;28;20219;-73
2022/09/15 18:15:31;;;;;;;15.77;7.57;;;;;16.00;95579.00;;;;8426682;28;20219;-73
2022/09/15 18:19:35;;;;;;;17.17;7.47;;;;;16.00;95589.00;;;;8426738;28;20218;-74
2022/09/15 18:23:41;;;;;;;21.52;7.90;;;;;16.00;95590.00;;;;8426718;28;20243;-74
2022/09/15 18:28:10;;;;;;;25.48;8.63;;;;;15.90;95590.00;;;;8426861;28;20226;-74
2022/09/15 18:32:13;;;;;;;21.65;7.53;;;;;15.90;95596.00;;;;8425383;28;20250;-74
2022/09/15 18:36:16;;;;;;;16.08;8.55;;;;;15.80;95605.00;;;;8431154;28;20317;-74
2022/09/15 18:40:19;;;;;;;18.90;8.90;;;;;15.70;95606.00;;;;8431824;28;20662;-74
2022/09/15 18:44:24;;;;;;;21.85;8.27;;;;;15.60;95602.00;;;;8432381;28;20240;-73
2022/09/15 18:48:39;;;;;;;18.38;7.90;;;;;15.50;95616.00;;;;8431925;28;20665;-74
2022/09/15 18:52:43;;;;;;;22.38;9.68;;;;;15.40;95620.00;;;;8432144;28;20231;-74
2022/09/15 18:56:46;;;;;;;23.67;9.77;;;;;15.30;95619.00;;;;8432347;28;20223;-74
2022/09/15 19:00:50;;;;;;;22.63;8.68;;;;;15.30;95623.00;;;;8431500;28;20223;-74
2022/09/15 19:04:53;;;;;;;21.60;8.88;;;;;15.30;95632.00;;;;8431283;28;20230;-75
2022/09/15 19:09:30;;;;;;;21.75;8.95;;;;;15.20;95635.00;;;;8431118;28;20226;-75
2022/09/15 19:13:34;;;;;;;22.52;7.97;;;;;15.20;95628.00;;;;8430612;28;20252;-75
2022/09/15 19:17:39;;;;;;;23.27;8.88;;;;;15.20;95624.00;;;;8430604;28;20227;-75
2022/09/15 19:21:42;;;;;;;18.60;8.48;;;;;15.10;95639.00;;;;8430876;28;20242;-74
2022/09/15 19:25:45;;;;;;;21.15;9.40;;;;;15.10;95647.00;;;;8430922;28;20250;-74
2022/09/15 19:29:49;;;;;;;23.40;9.73;;;;;15.10;95648.00;;;;8431005;28;20227;-75
2022/09/15 19:33:53;;;;;;;20.13;9.48;;;;;15.00;95653.00;;;;8430533;28;20602;-74
2022/09/15 19:38:28;;;;;;;21.25;10.00;;;;;14.90;95658.00;;;;8430617;28;20223;-74
2022/09/15 19:42:31;;;;;;;20.23;9.57;;;;;14.90;95656.00;;;;8429577;28;20672;-74
2022/09/15 19:46:34;;;;;;;22.27;9.93;;;;;14.80;95662.00;;;;8428738;28;20218;-75
2022/09/15 19:50:39;;;;;;;21.45;9.38;;;;;14.70;95667.00;;;;8429876;28;20225;-74
2022/09/15 19:54:43;;;;;;;20.73;9.13;;;;;14.60;95678.00;;;;8429760;28;20609;-72
2022/09/15 19:59:20;;;;;;;25.98;9.95;;;;;14.60;95672.00;;;;8430272;28;20673;-74
2022/09/15 20:03:25;;;;;;;23.85;10.40;;;;;14.50;95672.00;;;;8429475;28;20661;-75
2022/09/15 20:07:31;;;;;;;22.65;9.57;;;;;14.50;95667.00;;;;8430087;28;20669;-74
2022/09/15 20:11:34;;;;;;;22.48;9.63;;;;;14.40;95672.00;;;;8429635;28;20308;-75
2022/09/15 20:16:08;;;;;;;24.50;9.27;;;;;14.40;95680.00;;;;8429606;28;20561;-74
2022/09/15 20:20:12;;;;;;;21.65;8.88;;;;;14.30;95695.00;;;;8428350;28;20223;-75
2022/09/15 20:24:17;;;;;;;22.20;8.52;;;;;14.20;95692.00;;;;8428900;28;20659;-74
2022/09/15 20:28:51;;;;;;;16.65;8.45;;;;;14.20;95691.00;;;;8428319;28;20226;-74
2022/09/15 20:32:54;;;;;;;22.52;8.52;;;;;14.10;95690.00;;;;8428835;28;20215;-74
2022/09/15 20:36:57;;;;;;;18.00;8.95;;;;;14.10;95692.00;;;;8428700;28;20230;-74
2022/09/15 20:41:02;;;;;;;20.77;9.02;;;;;14.10;95689.00;;;;8428497;28;20310;-75
2022/09/15 20:45:36;;;;;;;25.23;8.95;;;;;14.10;95692.00;;;;8427511;28;20676;-75
2022/09/15 20:49:39;;;;;;;19.67;8.07;;;;;14.10;95697.00;;;;8428867;28;20267;-75
2022/09/15 20:53:45;;;;;;;21.17;8.88;;;;;14.10;95692.00;;;;8428147;28;20257;-75
2022/09/15 20:57:49;;;;;;;17.92;8.73;;;;;14.00;95701.00;;;;8428214;28;20226;-75